Aviation Digital Data Service (ADDS)

Output produced by METARs form (2336 UTC 30 October 2014)
found at http://aviationweather.gov/adds/metars/
 
KDAG 302250Z AUTO 07011KT 10SM CLR 29/M06 A2993 RMK AO2 SLP117 T02941061
KDAG 302320Z 3100/3124 07007KT P6SM BKN250 
     FM310400 26006KT P6SM SCT250 
     FM312100 24012G20KT P6SM SCT250
       
KEDW 302258Z 25003KT 80SM FEW120 SCT200 BKN250 27/M06 A2994 RMK AO2A SLP128 T02651060
TAF KEDW 3018/3124 VRB06KT 9999 BKN240 QNH2999INS 
     BECMG 3021/3022 VRB06KT 9999 BKN200 QNH2995INS 
     BECMG 3023/3024 24012KT 9999 SCT120 BKN200 QNH2998INS 
     BECMG 3103/3104 VRB06KT 9999 FEW150 QNH2996INS 
     BECMG 3114/3115 VRB06KT 9999 SCT150 BKN250 QNH2994INS 
     BECMG 3120/3121 24015G25KT 9999 SCT150 BKN200 QNH2992INS TX27/3022Z TN07/3113Z
       
KVCV 302315Z AUTO 17006KT 10SM SCT110 26/M06 A2998 RMK AO2
KONT 302253Z 25009KT 10SM SCT180 BKN250 28/09 A2992 RMK AO2 SLP117 VIRGA DSNT S AND W T02830089
KONT 301722Z 3018/3124 VRB03KT P6SM BKN250 
     FM302100 26010KT P6SM BKN250 
     FM310300 VRB04KT P6SM FEW010 SCT200 
     FM311000 VRB04KT 5SM BR BKN009 
     FM311600 VRB03KT 6SM HZ SCT010 SCT200 
     FM312100 24011KT P6SM SCT030
       
KNID 302256Z 00000KT 10SM FEW220 SCT280 27/M06 A2995 RMK AO2 SLP131 T02721056 $
TAF KNID 3023/3123 VRB05KT 9999 SCT180 BKN250 QNH2992INS 
     BECMG 3102/3104 20007KT 9999 FEW180 SCT250 QNH2995INS WND VRB04KT AFT 3114 
     BECMG 3116/3118 16008G15KT 9999 FEW180 BKN250 QNH2982INS WND 120V200 
     BECMG 3121/3123 19015G25KT 9999 FEW090 SCT200 BKN250 QNH2980INS WND 150V240 T07/3114Z T26/3122Z LAST NO AMDS AFT 3105 NEXT 3115
       
KSNA 302253Z 26007KT 10SM SCT019 BKN130 BKN220 23/17 A2994 RMK AO2 SLP137 VIRGA OHD ACC OHD T02280167
KSNA 301722Z 3018/3118 VRB03KT P6SM BKN250 
     FM302000 22007KT P6SM BKN200 
     FM310200 VRB04KT P6SM SCT015 
     FM310500 VRB03KT P6SM OVC015 
     FM311400 VRB04KT P6SM BKN022
       
KSAN 302251Z 30008G14KT 10SM FEW018 BKN200 23/17 A2995 RMK AO2 SLP142 T02280167
KSAN 302030Z 3021/3124 27008KT P6SM SCT250 
     FM310200 VRB04KT P6SM SCT015 SCT250 
     FM310400 VRB03KT P6SM OVC015 
     FM311400 VRB03KT P6SM BKN022 
     FM311900 22008KT P6SM SCT025
       
KNXP 302256Z 14005KT 10SM FEW150 SCT200 28/M02 A3002 RMK AO2 SLP135 T02781017 $
TAF KNXP 3021/3121 13008KT 9999 BKN180 BKN200 QNH2997INS 
     BECMG 3107/3109 VRB05KT 9999 FEW180 BKN250 QNH2992INS T34/3023Z T18/3113Z
       
KPSP 302253Z 14007KT CLR 32/02 A2990 RMK AO2 SLP121 T03170017
KPSP 301722Z 3018/3118 11006KT P6SM BKN200 
     FM310300 33007KT P6SM SCT200 
     FM311400 VRB04KT P6SM BKN200
       
KLAX 302253Z 26012KT 10SM SCT150 SCT200 20/16 A2994 RMK AO2 SLP138 SCT012 V BKN T02000161 $
KLAX 302218Z 3022/3124 26013KT P6SM SCT012 BKN200 
     FM310300 VRB03KT P6SM BKN012 BKN200 
     FM311100 VRB03KT P6SM BKN025 
     FM311500 12005KT 4SM BR OVC015 
     FM312000 23010KT P6SM OVC015
       
KCNO 302253Z 24013KT 10SM SCT180 BKN250 27/08 A2992 RMK AO2 SLP128 T02720083
KSMO 302326Z 24009KT 10SM 20/14 A2994 RMK AO2 T02000144 $
KLGB 302253Z 29010KT 10SM CLR 23/16 A2993 RMK AO2 SLP136 T02280161
KLGB 302220Z 3022/3118 30010KT P6SM SCT012 SCT150 BKN200 
     FM310400 VRB03KT P6SM BKN014 BKN200 
     FM311100 VRB03KT P6SM BKN025 
     FM311500 12005KT 4SM BR OVC015
       
KVNY 302251Z 12006KT 10SM CLR 26/11 A2992 RMK AO2 SLP126 T02560111
KVNY 301743Z 3018/3118 00000KT P6SM BKN200 
     FM302000 16008KT P6SM SCT150 BKN200 
     FM310400 VRB03KT P6SM BKN150 
     FM311100 VRB03KT P6SM BKN020 
     FM311500 12005KT 4SM BR OVC010
       
KBUR 302253Z AUTO 18006KT 10SM CLR 24/11 A2993 RMK AO2 SLP123 T02440106 TSNO
KBUR 301743Z 3018/3118 00000KT P6SM BKN200 
     FM302000 17008KT P6SM SCT150 BKN200 
     FM310400 VRB03KT P6SM BKN150 
     FM311100 VRB03KT P6SM BKN020 
     FM311500 12005KT 4SM BR OVC010
       
KBFL 302254Z 30011KT 10SM CLR 29/06 A2984 RMK AO2 SLP100 T02890061
KBFL 302322Z 3100/3124 29007KT P6SM BKN250 
     FM310300 06003KT P6SM FEW150 BKN200 
     FM311000 15004KT P6SM SCT120 BKN200 
     FM312100 26007KT P6SM SCT100 BKN180
       
KPMD 302253Z AUTO 06003KT 10SM CLR 25/M04 A2997 RMK AO2 SLP133 T02501044
KPMD 302105Z 3021/3118 00000KT P6SM BKN200 
     FM302200 25012KT P6SM SCT150 BKN200 
     FM310200 25006KT P6SM SCT120 BKN180 
     FM310800 25012KT P6SM BKN120
       
KOXR 302251Z 20005KT 10SM CLR 22/14 A2993 RMK AO2 SLP136 T02220144
KOXR 301743Z 3018/3118 08003KT P6SM BKN200 
     FM302000 25010KT P6SM FEW010 SCT150 BKN250 
     FM310300 25006KT P6SM SCT015 BKN250 
     FM310900 VRB03KT P6SM SCT015 OVC025 
     FM311300 09005KT 5SM BR OVC015
       
KWJF 302256Z 00000KT 10SM CLR 25/M05 A2997 RMK AO2 SLP140 T02501050
KWJF 301743Z 3018/3118 34003KT P6SM BKN200 
     FM302000 19010KT P6SM SCT120 BKN200 
     FM310200 25006KT P6SM SCT120 BKN180 
     FM310900 25012KT P6SM BKN120
       
KCMA 302255Z 16004KT 10SM CLR 21/14 A2993 RMK AO2 SLP142 T02110139
KFAT 302253Z VRB04KT 9SM SCT150 BKN200 29/06 A2985 RMK AO2 SLP106 MTNS PTLY OBSC HZ DSNT N-E-SE T02890061
KFAT 302322Z 3100/3124 VRB03KT 6SM HZ FEW150 BKN250 
     FM312200 17006KT P6SM SCT050 BKN100 BKN150
       
KEED 302256Z AUTO 00000KT 10SM CLR 31/M03 A2992 RMK AO2 SLP106 T03061033
KEED 302320Z 3100/3124 VRB04KT P6SM BKN250 
     FM310300 25006KT P6SM SCT250 
     FM312100 19012G20KT P6SM SCT250
       
KLSV 302258Z AUTO 06004KT 10SM CLR 29/M04 A2996 RMK AO2 SLP130 T02861043 $
TAF KLSV 3017/3123 01009KT 9999 FEW200 QNH2994INS 
     BECMG 3023/3024 16009KT 9999 SCT200 QNH2990INS 
     BECMG 3118/3119 17015G25KT 9999 SCT150 520009 QNH2984INS TX28/3023Z TN12/3112Z
       
KLAS 302256Z 17003KT 10SM BKN250 28/M06 A2995 RMK AO2 SLP125 T02831056
KLAS 302320Z 3100/3124 VRB04KT P6SM BKN250 
     FM310300 21008KT P6SM BKN250 
     FM311500 VRB04KT P6SM SCT250 
     FM312000 19015G23KT P6SM SCT250
       
KHII 302315Z AUTO 00000KT 10SM CLR 30/00 A2990 RMK AO2
KIFP 302315Z AUTO 00000KT 10SM CLR 30/M01 A2992 RMK AO2 PWINO